Time;durP1;ratioP1;P1;durP2;ratioP2;P2;SDS_P1;SDS_P2;PMS_P1;PMS_P2;Temp;Humidity;BMP_temperature;BMP_pressure;BME280_temperature;BME280_humidity;BME280_pressure;Samples;Min_cycle;Max_cycle;Signal;HPM_P1;HPM_P2
2021/09/21 00:02:25;;;;;;;8.50;7.03;;;13.80;99.40;;;;;;5056327;28;20074;-48
2021/09/21 00:04:50;;;;;;;8.27;7.47;;;13.90;99.20;;;;;;5073856;28;20029;-45
2021/09/21 00:07:16;;;;;;;8.70;7.05;;;13.80;99.20;;;;;;5073940;28;20674;-45
2021/09/21 00:09:43;;;;;;;8.85;7.10;;;13.80;99.30;;;;;;5074063;28;20115;-46
2021/09/21 00:12:09;;;;;;;9.20;6.63;;;13.80;99.30;;;;;;5074005;28;20025;-48
2021/09/21 00:14:34;;;;;;;7.82;6.93;;;13.80;99.20;;;;;;5073929;28;20028;-43
2021/09/21 00:17:02;;;;;;;7.03;6.20;;;13.80;99.20;;;;;;5073484;28;20025;-46
2021/09/21 00:19:32;;;;;;;8.27;6.78;;;13.70;99.20;;;;;;5056766;28;20040;-47
2021/09/21 00:21:58;;;;;;;7.68;6.88;;;13.70;99.30;;;;;;5073680;28;20033;-46
2021/09/21 00:24:23;;;;;;;9.63;7.28;;;13.70;99.30;;;;;;5073730;28;20101;-48
2021/09/21 00:26:49;;;;;;;8.23;7.43;;;13.70;99.20;;;;;;5073850;28;20736;-46
2021/09/21 00:29:14;;;;;;;7.47;6.25;;;13.70;99.30;;;;;;5055467;28;20363;-45
2021/09/21 00:31:41;;;;;;;9.60;6.75;;;13.70;99.40;;;;;;5073590;28;20162;-44
2021/09/21 00:34:11;;;;;;;7.35;6.55;;;13.70;99.30;;;;;;5074030;28;20074;-46
2021/09/21 00:36:38;;;;;;;7.05;6.22;;;13.70;99.10;;;;;;5073499;28;20078;-47
2021/09/21 00:39:06;;;;;;;12.85;6.80;;;13.70;99.10;;;;;;5073309;28;20024;-47
2021/09/21 00:41:35;;;;;;;6.53;5.85;;;13.70;99.10;;;;;;5073236;28;20025;-45
2021/09/21 00:44:00;;;;;;;8.90;6.45;;;13.70;99.10;;;;;;5073541;28;20085;-44
2021/09/21 00:46:26;;;;;;;8.15;6.38;;;13.70;99.20;;;;;;5073610;28;20099;-46
2021/09/21 00:48:51;;;;;;;6.90;6.20;;;13.70;99.20;;;;;;5073429;28;20025;-44
2021/09/21 00:51:17;;;;;;;7.72;6.25;;;13.70;99.20;;;;;;5073335;28;20033;-45
2021/09/21 00:53:43;;;;;;;9.00;6.28;;;13.60;99.20;;;;;;5073425;28;20371;-44
2021/09/21 00:56:08;;;;;;;9.35;6.70;;;13.60;99.20;;;;;;5073345;28;20027;-47
2021/09/21 00:58:34;;;;;;;7.50;5.93;;;13.60;99.10;;;;;;5055030;28;20104;-47
2021/09/21 01:01:00;;;;;;;9.75;6.90;;;13.60;99.10;;;;;;5073117;28;20035;-46
2021/09/21 01:03:25;;;;;;;6.75;6.05;;;13.60;98.70;;;;;;5073144;28;20543;-46
2021/09/21 01:05:51;;;;;;;6.68;6.05;;;13.50;98.90;;;;;;5055083;28;20168;-49
2021/09/21 01:08:16;;;;;;;8.00;6.30;;;13.60;98.70;;;;;;5072733;28;20029;-48
2021/09/21 01:10:42;;;;;;;8.95;6.13;;;13.60;98.70;;;;;;5072935;28;20694;-44
2021/09/21 01:13:07;;;;;;;7.90;6.70;;;13.60;98.70;;;;;;5073056;28;20037;-45
2021/09/21 01:15:33;;;;;;;6.72;5.40;;;13.60;98.30;;;;;;5072987;28;20023;-45
2021/09/21 01:17:59;;;;;;;8.90;5.82;;;13.60;98.60;;;;;;5054834;28;20089;-49
2021/09/21 01:20:26;;;;;;;7.93;5.72;;;13.60;98.40;;;;;;5054531;28;20024;-49
2021/09/21 01:22:51;;;;;;;5.82;5.32;;;13.60;98.30;;;;;;5072668;28;20024;-49
2021/09/21 01:25:17;;;;;;;6.43;5.82;;;13.60;98.30;;;;;;5054531;28;20024;-48
2021/09/21 01:27:42;;;;;;;6.82;5.38;;;13.50;98.20;;;;;;5054425;28;20031;-48
2021/09/21 01:30:11;;;;;;;6.40;5.15;;;13.50;98.30;;;;;;5054596;28;20424;-50
2021/09/21 01:32:36;;;;;;;6.10;5.55;;;13.50;98.10;;;;;;5072249;28;20034;-48
2021/09/21 01:35:02;;;;;;;6.00;5.10;;;13.50;98.30;;;;;;5072198;28;20020;-49
2021/09/21 01:37:29;;;;;;;6.10;5.47;;;13.50;98.10;;;;;;5072092;28;20478;-46
2021/09/21 01:39:54;;;;;;;6.05;4.88;;;13.40;98.40;;;;;;5054119;28;20021;-49
2021/09/21 01:42:20;;;;;;;5.55;4.97;;;13.50;98.20;;;;;;5054346;28;20024;-48
2021/09/21 01:44:46;;;;;;;9.43;5.63;;;13.40;98.20;;;;;;5054164;28;20120;-45
2021/09/21 01:47:12;;;;;;;10.50;5.45;;;13.50;98.20;;;;;;5071983;28;20032;-48
2021/09/21 01:50:31;;;;;;;7.78;5.63;;;13.50;98.20;;;;;;5053990;28;20489;-45
2021/09/21 01:52:30;;;;;;;7.18;5.93;;;13.50;98.20;;;;;;5057784;28;20036;-50
2021/09/21 01:55:09;;;;;;;5.78;5.28;;;13.50;98.30;;;;;;5072166;28;20028;-46
2021/09/21 02:00:18;;;;;;;5.13;4.57;;;13.60;98.30;;;;;;5072387;28;20059;-47
2021/09/21 02:02:44;;;;;;;7.15;4.90;;;13.60;98.30;;;;;;5072302;28;20059;-46
2021/09/21 02:05:10;;;;;;;5.80;4.30;;;13.60;98.30;;;;;;5053340;28;20028;-48
2021/09/21 02:07:36;;;;;;;5.30;4.72;;;13.50;98.30;;;;;;5071593;28;20052;-48
2021/09/21 02:10:02;;;;;;;4.53;4.13;;;13.50;98.40;;;;;;5071778;28;20107;-48
2021/09/21 02:12:28;;;;;;;4.50;4.10;;;13.40;98.20;;;;;;5071587;28;20025;-46
2021/09/21 02:14:58;;;;;;;4.47;3.95;;;13.30;98.20;;;;;;5053753;28;20302;-49
2021/09/21 02:17:23;;;;;;;5.30;4.80;;;13.30;98.30;;;;;;5071402;28;20017;-45
2021/09/21 02:19:49;;;;;;;4.80;4.40;;;13.30;98.30;;;;;;5071502;28;20037;-45
2021/09/21 02:22:14;;;;;;;5.32;4.15;;;13.30;98.30;;;;;;5071661;28;20458;-46
2021/09/21 02:24:40;;;;;;;4.97;4.53;;;13.40;98.10;;;;;;5053550;28;20139;-50
2021/09/21 02:27:05;;;;;;;7.53;4.47;;;13.30;98.10;;;;;;5071241;28;20068;-46
2021/09/21 02:29:30;;;;;;;4.88;4.38;;;13.30;98.20;;;;;;5071242;28;20025;-48
2021/09/21 02:31:56;;;;;;;6.00;4.32;;;13.30;98.40;;;;;;5071231;28;20299;-46
2021/09/21 02:34:21;;;;;;;5.07;3.95;;;13.30;98.40;;;;;;5071280;28;20040;-47
2021/09/21 02:36:47;;;;;;;4.32;3.88;;;13.30;98.30;;;;;;5071110;28;20166;-47
2021/09/21 02:39:13;;;;;;;4.97;4.43;;;13.30;98.30;;;;;;5071292;28;20100;-47
2021/09/21 02:41:39;;;;;;;5.70;4.43;;;13.20;98.40;;;;;;5071230;28;20020;-48
2021/09/21 02:44:05;;;;;;;4.88;4.07;;;13.20;98.10;;;;;;5071116;28;20500;-46
2021/09/21 02:46:30;;;;;;;7.60;4.18;;;13.20;98.00;;;;;;5071020;28;20029;-45
2021/09/21 02:48:56;;;;;;;6.53;4.03;;;13.10;98.00;;;;;;5053227;28;20033;-47
2021/09/21 02:51:22;;;;;;;5.00;4.50;;;13.10;98.00;;;;;;5071252;28;20043;-44
2021/09/21 02:53:48;;;;;;;4.53;4.13;;;13.10;98.10;;;;;;5071170;28;20036;-46
2021/09/21 02:56:15;;;;;;;4.20;3.80;;;13.10;98.00;;;;;;5052931;28;20020;-45
2021/09/21 02:58:41;;;;;;;5.40;4.30;;;13.10;98.10;;;;;;5071030;28;20070;-46
2021/09/21 03:01:07;;;;;;;6.03;4.65;;;13.10;97.90;;;;;;5071004;28;20024;-50
2021/09/21 03:03:40;;;;;;;6.40;3.92;;;13.10;97.90;;;;;;5052951;28;20028;-46
2021/09/21 03:06:09;;;;;;;4.85;3.97;;;13.10;97.90;;;;;;5070867;28;20028;-47
2021/09/21 03:08:36;;;;;;;12.02;3.85;;;13.20;97.80;;;;;;5052589;28;20024;-47
2021/09/21 03:11:13;;;;;;;5.28;4.05;;;13.20;97.90;;;;;;5071065;28;20031;-49
2021/09/21 03:19:03;;;;;;;3.65;3.35;;;13.10;97.80;;;;;;5069920;28;20028;-47
2021/09/21 03:21:29;;;;;;;4.05;3.75;;;13.10;97.80;;;;;;5070542;28;20024;-46
2021/09/21 03:23:55;;;;;;;5.85;4.88;;;13.00;97.80;;;;;;5070675;28;20039;-49
2021/09/21 03:26:21;;;;;;;4.38;4.00;;;13.00;97.80;;;;;;5070386;28;20036;-45
2021/09/21 03:28:47;;;;;;;6.18;3.70;;;13.10;97.40;;;;;;5052250;28;20024;-45
2021/09/21 03:31:12;;;;;;;4.60;4.20;;;13.10;97.40;;;;;;5070752;28;20033;-48
2021/09/21 03:33:38;;;;;;;8.95;3.83;;;13.10;97.40;;;;;;5052421;28;20062;-48
2021/09/21 03:36:04;;;;;;;9.15;5.15;;;13.10;97.30;;;;;;5070647;28;20027;-46
2021/09/21 03:38:30;;;;;;;4.40;4.00;;;13.10;97.30;;;;;;5070293;28;20701;-47
2021/09/21 03:40:55;;;;;;;6.22;4.95;;;13.10;97.50;;;;;;5070250;28;20021;-46
2021/09/21 03:43:21;;;;;;;4.00;3.60;;;13.10;97.40;;;;;;5069969;28;20024;-46
2021/09/21 03:45:46;;;;;;;8.13;5.20;;;13.00;97.40;;;;;;5070265;28;20397;-48
2021/09/21 03:48:12;;;;;;;4.35;3.95;;;13.10;97.40;;;;;;5052171;28;20040;-47
2021/09/21 03:50:37;;;;;;;7.00;3.90;;;13.10;97.40;;;;;;5070274;28;20108;-46
2021/09/21 03:53:03;;;;;;;4.32;4.00;;;13.10;97.40;;;;;;5052390;28;20603;-45
2021/09/21 03:55:29;;;;;;;5.70;4.13;;;13.10;97.50;;;;;;5070497;28;20020;-48
2021/09/21 03:57:55;;;;;;;4.38;3.97;;;13.10;97.50;;;;;;5051999;28;20425;-45
2021/09/21 04:00:21;;;;;;;4.35;3.97;;;13.10;97.60;;;;;;5052191;28;20481;-45
2021/09/21 04:02:46;;;;;;;4.22;3.90;;;13.10;97.60;;;;;;5052137;28;20020;-46
2021/09/21 04:05:12;;;;;;;4.60;4.18;;;13.10;97.20;;;;;;5052181;28;20106;-48
2021/09/21 04:07:38;;;;;;;6.70;4.13;;;13.10;97.20;;;;;;5069847;28;20029;-47
2021/09/21 04:10:05;;;;;;;5.40;4.10;;;13.10;97.10;;;;;;5070093;28;20063;-48
2021/09/21 04:12:31;;;;;;;6.82;4.05;;;13.10;97.10;;;;;;5070084;28;20047;-46
2021/09/21 04:14:57;;;;;;;4.30;3.97;;;13.10;97.10;;;;;;5051995;28;20440;-45
2021/09/21 04:17:23;;;;;;;5.30;4.20;;;13.00;97.20;;;;;;5051952;28;20021;-50
2021/09/21 04:19:48;;;;;;;4.90;4.38;;;13.00;97.20;;;;;;5052268;28;20024;-45
2021/09/21 04:22:14;;;;;;;4.57;3.83;;;13.00;97.20;;;;;;5052185;28;20078;-47
2021/09/21 04:24:39;;;;;;;9.23;3.75;;;13.00;97.20;;;;;;5070116;28;20112;-44
2021/09/21 04:27:07;;;;;;;4.32;3.88;;;13.00;97.10;;;;;;5069905;28;20528;-47
2021/09/21 04:29:32;;;;;;;4.25;3.67;;;13.00;97.20;;;;;;5071787;28;20176;-45
2021/09/21 04:32:01;;;;;;;5.43;4.28;;;13.00;97.20;;;;;;5073445;28;20027;-45
2021/09/21 04:34:29;;;;;;;4.60;3.83;;;12.90;97.10;;;;;;5073785;28;20028;-49
2021/09/21 04:36:55;;;;;;;5.93;4.28;;;12.90;97.10;;;;;;5073592;28;20024;-45
2021/09/21 04:39:20;;;;;;;4.03;3.72;;;12.90;97.10;;;;;;5055084;28;20074;-47
2021/09/21 04:41:46;;;;;;;3.80;3.50;;;12.90;97.10;;;;;;5073604;28;20506;-46
2021/09/21 04:44:11;;;;;;;7.68;4.30;;;12.90;97.20;;;;;;5073436;28;20082;-45
2021/09/21 04:46:37;;;;;;;6.43;4.22;;;12.90;97.00;;;;;;5073915;28;20028;-47
2021/09/21 04:49:07;;;;;;;6.90;4.00;;;12.90;97.00;;;;;;5073444;28;20031;-45
2021/09/21 04:51:33;;;;;;;7.28;3.95;;;12.90;97.00;;;;;;5073356;28;20027;-45
2021/09/21 04:53:59;;;;;;;5.05;4.55;;;12.90;97.10;;;;;;5073370;28;20021;-46
2021/09/21 04:56:24;;;;;;;6.80;4.00;;;12.80;97.10;;;;;;5073185;28;20024;-44
2021/09/21 04:58:50;;;;;;;4.32;3.92;;;12.80;97.30;;;;;;5072960;28;20024;-45
2021/09/21 05:01:15;;;;;;;5.07;4.57;;;12.80;97.20;;;;;;5073142;28;20504;-48
2021/09/21 05:03:41;;;;;;;7.88;4.40;;;12.80;97.10;;;;;;5073479;28;20016;-49
2021/09/21 05:06:06;;;;;;;6.32;5.00;;;12.70;97.30;;;;;;5073053;28;20036;-49
2021/09/21 05:08:32;;;;;;;4.97;4.28;;;12.70;97.30;;;;;;5055128;28;20048;-47
2021/09/21 05:10:57;;;;;;;4.97;4.28;;;12.80;97.30;;;;;;5072950;28;20543;-46
2021/09/21 05:13:23;;;;;;;4.40;3.58;;;12.80;97.40;;;;;;5072864;28;20021;-44
2021/09/21 05:15:49;;;;;;;4.32;3.45;;;12.80;97.30;;;;;;5055109;28;20039;-48
2021/09/21 05:18:15;;;;;;;6.85;4.30;;;12.70;97.50;;;;;;5073160;28;20078;-48
2021/09/21 05:20:40;;;;;;;6.30;4.05;;;12.70;97.70;;;;;;5073255;28;20444;-45
2021/09/21 05:23:06;;;;;;;5.75;3.95;;;12.70;97.70;;;;;;5072855;28;20504;-45
2021/09/21 05:25:31;;;;;;;6.68;4.20;;;12.80;97.40;;;;;;5072703;28;20040;-45
2021/09/21 05:27:57;;;;;;;3.80;3.58;;;12.80;97.30;;;;;;5072613;28;20028;-45
2021/09/21 05:30:23;;;;;;;4.95;3.95;;;12.70;97.60;;;;;;5072309;28;20104;-45
2021/09/21 05:32:48;;;;;;;4.75;3.38;;;12.70;97.30;;;;;;5072656;28;20031;-45
2021/09/21 05:35:14;;;;;;;5.20;4.20;;;12.70;97.30;;;;;;5054444;28;20017;-47
2021/09/21 05:37:39;;;;;;;6.22;4.25;;;12.70;97.50;;;;;;5072443;28;20103;-44
2021/09/21 05:40:07;;;;;;;5.78;3.65;;;12.60;97.70;;;;;;5053859;28;20512;-47
2021/09/21 05:42:33;;;;;;;4.85;3.67;;;12.60;97.80;;;;;;5072289;28;20127;-49
2021/09/21 05:44:58;;;;;;;3.92;3.63;;;12.60;97.80;;;;;;5054235;28;20036;-47
2021/09/21 05:47:24;;;;;;;5.50;3.65;;;12.50;97.70;;;;;;5072027;28;20024;-49
2021/09/21 05:49:49;;;;;;;6.07;4.13;;;12.50;97.50;;;;;;5072363;28;20024;-47
2021/09/21 05:52:15;;;;;;;7.88;4.40;;;12.50;97.50;;;;;;5072078;28;20031;-46
2021/09/21 05:54:40;;;;;;;5.18;3.92;;;12.50;97.50;;;;;;5071985;28;20032;-45
2021/09/21 05:57:06;;;;;;;6.45;4.20;;;12.50;97.50;;;;;;5053879;28;20289;-47
2021/09/21 05:59:32;;;;;;;4.60;4.20;;;12.50;97.50;;;;;;5071768;28;20035;-47
2021/09/21 06:01:57;;;;;;;8.15;5.57;;;12.50;97.70;;;;;;5072023;28;20033;-47
2021/09/21 06:04:23;;;;;;;5.15;4.40;;;12.50;97.30;;;;;;5071767;28;20036;-50
2021/09/21 06:06:48;;;;;;;4.90;4.15;;;12.50;97.10;;;;;;5071864;28;20052;-49
2021/09/21 06:09:13;;;;;;;4.78;3.65;;;12.60;96.90;;;;;;5071647;28;20501;-48
2021/09/21 06:11:39;;;;;;;5.82;4.13;;;12.70;96.80;;;;;;5072103;28;20032;-50
2021/09/21 06:14:05;;;;;;;9.48;4.50;;;12.70;97.00;;;;;;5071680;28;20393;-45
2021/09/21 06:16:31;;;;;;;7.15;4.22;;;12.70;96.70;;;;;;5071663;28;20103;-45
2021/09/21 06:18:57;;;;;;;5.10;4.40;;;12.60;97.10;;;;;;5071412;28;20024;-46
2021/09/21 06:21:23;;;;;;;8.07;4.22;;;12.60;97.10;;;;;;5117106;22;20063;-49
2021/09/21 06:23:50;;;;;;;6.18;4.85;;;12.60;97.10;;;;;;5112210;28;20084;-46
2021/09/21 06:26:15;;;;;;;5.10;4.50;;;12.60;97.30;;;;;;5112895;28;20030;-50
2021/09/21 06:28:41;;;;;;;7.60;3.92;;;12.70;96.90;;;;;;5111171;28;20146;-46
2021/09/21 06:31:07;;;;;;;4.50;4.10;;;12.70;96.90;;;;;;5112918;28;20031;-49
2021/09/21 06:33:33;;;;;;;8.23;4.00;;;12.60;97.00;;;;;;5112090;28;20019;-49
2021/09/21 06:35:58;;;;;;;5.07;4.28;;;12.60;97.00;;;;;;5112196;28;20020;-47
2021/09/21 06:38:24;;;;;;;5.85;4.07;;;12.40;97.30;;;;;;5111230;28;20023;-51
2021/09/21 06:40:50;;;;;;;6.97;4.15;;;12.30;97.20;;;;;;5092283;28;20476;-48
2021/09/21 06:43:15;;;;;;;4.40;3.90;;;12.30;97.40;;;;;;5111824;28;20035;-47
2021/09/21 06:45:41;;;;;;;7.47;5.03;;;12.10;97.30;;;;;;5111755;28;20053;-52
2021/09/21 06:48:06;;;;;;;5.32;4.05;;;12.20;97.30;;;;;;5111371;28;20023;-49
2021/09/21 06:50:32;;;;;;;7.68;4.13;;;12.30;97.30;;;;;;5111228;28;20542;-50
2021/09/21 06:52:58;;;;;;;5.68;3.83;;;12.30;97.00;;;;;;5111320;28;20034;-50
2021/09/21 06:55:23;;;;;;;8.25;4.25;;;12.30;97.10;;;;;;5111592;28;20495;-51
2021/09/21 06:57:51;;;;;;;6.25;4.13;;;12.40;97.00;;;;;;5110710;28;20024;-50
2021/09/21 07:00:18;;;;;;;8.10;3.72;;;12.60;96.60;;;;;;5111406;28;20012;-46
2021/09/21 07:02:47;;;;;;;6.60;3.72;;;12.80;96.50;;;;;;5111376;28;20077;-52
2021/09/21 07:05:12;;;;;;;4.70;3.65;;;12.80;96.00;;;;;;5111723;28;20028;-53
2021/09/21 07:07:45;;;;;;;9.95;4.32;;;13.00;96.10;;;;;;5111038;28;20088;-46
2021/09/21 07:10:13;;;;;;;12.07;4.45;;;13.10;96.00;;;;;;5111346;28;20103;-47
2021/09/21 07:12:39;;;;;;;4.60;4.00;;;13.10;96.20;;;;;;5109500;28;20024;-49
2021/09/21 07:15:06;;;;;;;6.47;3.85;;;13.30;96.10;;;;;;5111177;28;20073;-50
2021/09/21 07:17:31;;;;;;;4.22;3.75;;;13.40;95.60;;;;;;5110651;28;20532;-50
2021/09/21 07:19:57;;;;;;;7.20;3.88;;;13.50;95.50;;;;;;5111108;28;20034;-52
2021/09/21 07:22:22;;;;;;;7.82;3.80;;;13.60;95.50;;;;;;5111363;28;20054;-48
2021/09/21 07:24:49;;;;;;;7.32;4.22;;;13.80;95.00;;;;;;5111155;28;20087;-49
2021/09/21 07:27:15;;;;;;;6.43;3.83;;;13.80;94.60;;;;;;5111015;28;20384;-52
2021/09/21 07:29:40;;;;;;;11.98;4.50;;;13.90;94.80;;;;;;5092621;28;20031;-50
2021/09/21 07:32:06;;;;;;;7.65;4.25;;;13.90;94.80;;;;;;5111006;28;20032;-49
2021/09/21 07:34:31;;;;;;;5.65;3.85;;;14.10;95.10;;;;;;5111222;28;20027;-45
2021/09/21 07:36:57;;;;;;;7.75;3.92;;;14.20;94.30;;;;;;5111084;28;20439;-51
2021/09/21 07:39:23;;;;;;;6.43;5.40;;;14.20;94.30;;;;;;5092016;28;20120;-47
2021/09/21 07:41:49;;;;;;;8.60;3.78;;;14.00;94.20;;;;;;5111078;28;20024;-49
2021/09/21 07:44:14;;;;;;;7.05;4.18;;;13.80;94.40;;;;;;5111173;28;20035;-47
2021/09/21 07:46:40;;;;;;;9.15;4.20;;;13.50;94.70;;;;;;5111226;28;20035;-52
2021/09/21 07:49:05;;;;;;;4.00;3.50;;;13.40;95.00;;;;;;5092099;28;20023;-51
2021/09/21 07:51:31;;;;;;;8.52;3.92;;;13.50;95.10;;;;;;5110929;28;20024;-46
2021/09/21 07:53:57;;;;;;;6.47;3.97;;;13.50;95.20;;;;;;5111108;28;20440;-48
2021/09/21 07:56:22;;;;;;;6.78;4.32;;;13.40;95.20;;;;;;5111003;28;20027;-49
2021/09/21 07:58:48;;;;;;;6.70;4.30;;;13.30;95.30;;;;;;5110265;28;20019;-50
2021/09/21 08:01:14;;;;;;;5.47;3.63;;;13.30;95.70;;;;;;5110934;28;20063;-53
2021/09/21 08:03:39;;;;;;;3.50;3.20;;;13.40;95.20;;;;;;5111653;28;20063;-46
2021/09/21 08:06:05;;;;;;;4.00;3.60;;;13.40;95.10;;;;;;5096684;28;20510;-51
2021/09/21 08:08:31;;;;;;;9.18;3.03;;;13.50;95.80;;;;;;5114134;28;20089;-50
2021/09/21 08:10:57;;;;;;;5.00;3.28;;;13.60;95.20;;;;;;5114910;28;20027;-52
2021/09/21 08:13:23;;;;;;;9.23;3.67;;;13.70;95.00;;;;;;5115079;28;20020;-47
2021/09/21 08:15:49;;;;;;;5.15;3.72;;;13.70;95.20;;;;;;5115381;28;20023;-50
2021/09/21 08:18:15;;;;;;;5.35;4.32;;;13.60;95.10;;;;;;5114770;28;20035;-47
2021/09/21 08:20:40;;;;;;;4.93;4.00;;;13.70;95.20;;;;;;5096956;28;20049;-48
2021/09/21 08:23:06;;;;;;;7.22;4.65;;;13.60;95.00;;;;;;5115186;28;20102;-46
2021/09/21 08:25:31;;;;;;;6.13;4.47;;;13.70;94.40;;;;;;5114795;28;20469;-47
2021/09/21 08:27:57;;;;;;;4.90;4.40;;;13.70;94.70;;;;;;5114491;28;20043;-48
2021/09/21 08:30:22;;;;;;;6.03;5.00;;;13.70;94.30;;;;;;5096616;28;20085;-53
2021/09/21 08:32:48;;;;;;;6.55;4.18;;;13.80;94.90;;;;;;5114755;28;20501;-48
2021/09/21 08:35:14;;;;;;;5.13;4.63;;;13.80;94.50;;;;;;5114857;28;20024;-47
2021/09/21 08:37:41;;;;;;;4.57;4.05;;;14.00;94.40;;;;;;5095539;28;20503;-47
2021/09/21 08:40:07;;;;;;;8.55;3.50;;;14.10;93.90;;;;;;5095165;28;20065;-50
2021/09/21 08:42:32;;;;;;;6.45;4.53;;;14.20;94.10;;;;;;5096234;28;20123;-47
2021/09/21 08:44:58;;;;;;;6.13;4.65;;;14.20;93.80;;;;;;5114621;28;20031;-49
2021/09/21 08:47:25;;;;;;;7.40;4.28;;;14.20;93.50;;;;;;5113825;28;20080;-53
2021/09/21 08:49:50;;;;;;;10.23;4.47;;;14.40;93.90;;;;;;5114198;28;20068;-46
2021/09/21 08:52:16;;;;;;;6.05;3.63;;;15.20;93.40;;;;;;5095717;28;20504;-48
2021/09/21 08:54:42;;;;;;;5.55;3.88;;;16.60;91.70;;;;;;5114069;28;20465;-50
2021/09/21 08:57:08;;;;;;;9.98;3.78;;;18.30;89.10;;;;;;5114066;28;20501;-49
2021/09/21 08:59:35;;;;;;;5.18;3.35;;;19.50;83.50;;;;;;5113304;28;20032;-49
2021/09/21 09:02:06;;;;;;;3.55;3.25;;;20.10;81.50;;;;;;5096205;28;20062;-52
2021/09/21 09:04:31;;;;;;;5.90;4.22;;;20.70;81.30;;;;;;5114169;28;20035;-50
2021/09/21 09:06:58;;;;;;;4.13;3.72;;;20.90;77.10;;;;;;5115334;28;20386;-47
2021/09/21 09:09:27;;;;;;;4.28;3.45;;;20.70;75.90;;;;;;5116331;28;20518;-48
2021/09/21 09:11:58;;;;;;;11.00;4.72;;;20.80;75.90;;;;;;5113762;28;20032;-48
2021/09/21 09:14:27;;;;;;;4.07;3.58;;;21.30;74.50;;;;;;5113839;28;20040;-50
2021/09/21 09:16:58;;;;;;;4.13;3.67;;;21.60;74.00;;;;;;5112354;28;20034;-47
2021/09/21 09:19:37;;;;;;;3.90;3.55;;;22.30;72.70;;;;;;5113510;28;20024;-51
2021/09/21 09:22:17;;;;;;;4.47;3.65;;;22.60;69.30;;;;;;5113674;28;20527;-52
2021/09/21 09:24:53;;;;;;;5.85;4.38;;;22.60;69.10;;;;;;5113402;28;20024;-46
2021/09/21 09:27:21;;;;;;;9.15;4.50;;;22.30;69.20;;;;;;5094684;28;20068;-46
2021/09/21 09:30:01;;;;;;;10.40;4.53;;;22.40;70.20;;;;;;5113387;28;20088;-47
2021/09/21 09:32:27;;;;;;;5.18;4.75;;;22.20;69.70;;;;;;5113381;28;20176;-46
2021/09/21 09:34:57;;;;;;;5.43;4.50;;;21.70;65.80;;;;;;5113369;28;20520;-47
2021/09/21 09:37:23;;;;;;;6.25;4.95;;;21.30;67.30;;;;;;5112628;28;20037;-50
2021/09/21 09:39:58;;;;;;;7.07;4.35;;;20.70;67.90;;;;;;5113395;28;20497;-49
2021/09/21 09:42:24;;;;;;;8.30;5.28;;;20.20;67.80;;;;;;5113124;28;20027;-50
2021/09/21 09:44:49;;;;;;;5.05;4.65;;;20.10;69.20;;;;;;5113099;28;20393;-46
2021/09/21 09:47:15;;;;;;;5.95;3.83;;;20.00;70.80;;;;;;5112705;28;20023;-49
2021/09/21 09:49:43;;;;;;;5.68;4.22;;;20.00;72.60;;;;;;5112806;28;20027;-51
2021/09/21 09:52:13;;;;;;;4.43;3.80;;;20.00;71.70;;;;;;5112836;28;20500;-53
2021/09/21 09:54:41;;;;;;;4.93;3.35;;;19.80;71.10;;;;;;5112960;28;20023;-53
2021/09/21 09:57:08;;;;;;;3.78;3.47;;;19.60;71.80;;;;;;5112459;28;20016;-47
2021/09/21 09:59:35;;;;;;;4.60;3.10;;;19.30;71.70;;;;;;5112273;28;20027;-50
2021/09/21 10:02:00;;;;;;;7.13;3.08;;;19.50;72.50;;;;;;5113002;28;20052;-50
2021/09/21 10:04:26;;;;;;;2.90;2.70;;;19.40;71.80;;;;;;5112880;28;20523;-48
2021/09/21 10:06:52;;;;;;;3.85;3.17;;;19.50;72.90;;;;;;5112830;28;20237;-46
2021/09/21 10:09:19;;;;;;;4.35;3.67;;;19.30;72.70;;;;;;5111783;28;20541;-49
2021/09/21 10:11:50;;;;;;;4.78;3.40;;;19.10;72.90;;;;;;5112322;28;20042;-51
2021/09/21 10:14:18;;;;;;;3.30;2.63;;;19.10;72.30;;;;;;5112814;28;20016;-49
2021/09/21 10:16:55;;;;;;;4.72;3.28;;;19.30;72.40;;;;;;5094367;28;20064;-48
2021/09/21 10:19:24;;;;;;;7.78;3.60;;;19.10;71.10;;;;;;5111835;28;20024;-50
2021/09/21 10:21:53;;;;;;;3.22;2.92;;;19.10;71.50;;;;;;5112360;28;20485;-46
2021/09/21 10:24:41;;;;;;;4.13;3.22;;;19.10;72.40;;;;;;5112526;28;20145;-47
2021/09/21 10:27:10;;;;;;;5.15;3.30;;;19.30;72.10;;;;;;5111671;28;20492;-50
2021/09/21 10:29:37;;;;;;;3.35;3.05;;;19.50;72.30;;;;;;5111787;28;20024;-50
2021/09/21 10:32:13;;;;;;;7.22;3.05;;;19.20;71.70;;;;;;5112054;28;20031;-46
2021/09/21 10:34:47;;;;;;;3.42;3.17;;;19.00;71.70;;;;;;5111857;28;20026;-48
2021/09/21 10:37:15;;;;;;;4.30;3.00;;;19.00;71.10;;;;;;5111883;28;20043;-49
2021/09/21 10:39:41;;;;;;;5.25;3.25;;;19.10;71.70;;;;;;5110459;28;20015;-48
2021/09/21 10:42:10;;;;;;;3.22;2.80;;;19.00;69.80;;;;;;5111288;28;20024;-46
2021/09/21 10:44:48;;;;;;;3.53;3.22;;;18.50;70.20;;;;;;5111535;28;20484;-50
2021/09/21 10:47:23;;;;;;;5.97;3.38;;;18.40;70.10;;;;;;5111229;28;20388;-48
2021/09/21 10:49:48;;;;;;;4.20;3.15;;;18.20;70.50;;;;;;5111623;28;20045;-48
2021/09/21 10:52:19;;;;;;;3.70;3.25;;;18.20;72.30;;;;;;5111459;28;20489;-52
2021/09/21 10:54:56;;;;;;;3.15;2.92;;;18.20;73.20;;;;;;5111483;28;20651;-51
2021/09/21 10:57:34;;;;;;;4.13;2.70;;;18.20;73.20;;;;;;5110674;28;20119;-46
2021/09/21 11:00:05;;;;;;;4.25;2.88;;;18.30;74.20;;;;;;5111675;28;20121;-47
2021/09/21 11:02:36;;;;;;;3.03;2.67;;;18.10;72.60;;;;;;5111523;28;20028;-53
2021/09/21 11:05:03;;;;;;;6.38;4.63;;;18.10;73.80;;;;;;5111415;28;20537;-51
2021/09/21 11:07:28;;;;;;;3.33;2.70;;;18.00;71.80;;;;;;5092325;28;20168;-50
2021/09/21 11:09:55;;;;;;;3.45;2.83;;;17.90;73.10;;;;;;5111063;28;20106;-46
2021/09/21 11:12:23;;;;;;;3.42;2.88;;;18.00;74.40;;;;;;5111065;28;20158;-44
2021/09/21 11:14:52;;;;;;;2.97;2.75;;;17.90;72.90;;;;;;5111093;28;20028;-51
2021/09/21 11:17:25;;;;;;;3.20;2.90;;;17.90;73.60;;;;;;5110653;28;20035;-50
2021/09/21 11:19:57;;;;;;;6.03;4.05;;;17.90;74.60;;;;;;5093171;28;20023;-52
2021/09/21 11:22:28;;;;;;;6.85;3.28;;;18.10;74.60;;;;;;5092795;28;20523;-48
2021/09/21 11:25:11;;;;;;;4.80;3.40;;;18.10;74.70;;;;;;5111478;28;20028;-49
2021/09/21 11:27:40;;;;;;;3.78;3.00;;;18.10;73.50;;;;;;5110614;28;20071;-47
2021/09/21 11:30:13;;;;;;;4.13;3.38;;;18.10;74.20;;;;;;5110985;28;20024;-44
2021/09/21 11:32:41;;;;;;;7.25;3.00;;;18.10;74.90;;;;;;5110973;28;20029;-48
2021/09/21 11:35:10;;;;;;;3.35;3.03;;;18.10;75.00;;;;;;5110890;28;20030;-45
2021/09/21 11:37:36;;;;;;;3.38;2.80;;;18.00;75.60;;;;;;5109768;28;20039;-50
2021/09/21 11:40:02;;;;;;;4.93;3.55;;;17.80;75.80;;;;;;5109996;28;20114;-46
2021/09/21 11:42:31;;;;;;;4.93;3.20;;;17.70;75.30;;;;;;5110837;28;20073;-52
2021/09/21 11:45:07;;;;;;;4.50;3.45;;;17.50;76.40;;;;;;5113145;28;20103;-47
2021/09/21 11:47:42;;;;;;;3.25;2.92;;;17.70;77.20;;;;;;5112351;28;20031;-50
2021/09/21 11:50:17;;;;;;;6.85;3.20;;;17.70;77.10;;;;;;5092015;28;20053;-42
2021/09/21 11:52:54;;;;;;;5.40;2.97;;;17.70;77.30;;;;;;5107652;28;20039;-52
2021/09/21 11:55:22;;;;;;;3.53;2.78;;;17.90;76.10;;;;;;5110174;28;20388;-47
2021/09/21 11:57:48;;;;;;;4.45;3.35;;;17.90;75.80;;;;;;5108694;28;20024;-50
2021/09/21 12:00:26;;;;;;;8.07;2.95;;;17.80;76.70;;;;;;5109014;28;20027;-48
2021/09/21 12:02:57;;;;;;;4.03;3.08;;;17.70;77.10;;;;;;5109567;28;20055;-50
2021/09/21 12:05:23;;;;;;;4.43;3.08;;;17.80;77.80;;;;;;5110479;28;20080;-48
2021/09/21 12:07:50;;;;;;;6.03;3.50;;;17.80;78.50;;;;;;5110327;28;20065;-48
2021/09/21 12:10:15;;;;;;;5.43;2.60;;;17.70;78.30;;;;;;5110573;28;20034;-47
2021/09/21 12:12:42;;;;;;;9.30;3.20;;;17.60;77.80;;;;;;5110298;28;20031;-46
2021/09/21 12:15:11;;;;;;;3.28;3.03;;;17.50;77.80;;;;;;5110602;28;20046;-44
2021/09/21 12:17:44;;;;;;;5.13;2.90;;;17.60;77.80;;;;;;5110287;28;20016;-47
2021/09/21 12:20:12;;;;;;;4.90;3.55;;;17.50;78.30;;;;;;5092100;28;20028;-46
2021/09/21 12:22:39;;;;;;;8.23;3.47;;;17.60;78.00;;;;;;5110460;28;20027;-48
2021/09/21 12:25:08;;;;;;;12.60;4.30;;;17.70;78.50;;;;;;5110595;28;20047;-51
2021/09/21 12:27:36;;;;;;;3.28;2.85;;;17.70;78.00;;;;;;5110026;28;20102;-47
2021/09/21 12:30:05;;;;;;;13.00;4.05;;;17.50;78.50;;;;;;5110332;28;20035;-46
2021/09/21 12:32:30;;;;;;;8.48;3.00;;;17.50;79.20;;;;;;5110287;28;20055;-51
2021/09/21 12:35:08;;;;;;;3.17;2.75;;;17.50;80.30;;;;;;5110333;28;20066;-46
2021/09/21 12:37:41;;;;;;;3.83;2.50;;;17.30;80.10;;;;;;5109658;28;20031;-46
2021/09/21 12:40:14;;;;;;;2.85;2.65;;;17.30;80.80;;;;;;5109775;28;20106;-51
2021/09/21 12:42:42;;;;;;;3.97;2.95;;;17.40;81.50;;;;;;5091771;28;20069;-47
2021/09/21 12:45:10;;;;;;;6.40;2.90;;;17.30;80.20;;;;;;5110514;28;20031;-49
2021/09/21 12:47:37;;;;;;;7.25;4.85;;;17.30;81.00;;;;;;5110044;28;20028;-48
2021/09/21 12:50:14;;;;;;;8.07;6.28;;;17.30;80.10;;;;;;5111352;28;20030;-48
2021/09/21 12:52:57;;;;;;;5.72;3.33;;;17.30;80.70;;;;;;5114046;28;20102;-50
2021/09/21 12:55:42;;;;;;;3.97;3.03;;;17.30;81.00;;;;;;5114386;28;20152;-47